Coal Creek, Iowa
Current Conditions -  °F | °C
As of 6:15 AM on Thursday 18 Dec 2014 (Local Time) from KOOA Reporting Station
Overcast Overcast  
Wind Chill: 14°   Ceiling: 6000
Heat Index: 21°   Visibility: 10mi
Dew Point: 18°   Wind: 5mph
Humidity: 87%   Direction: 50°NE
Pressure: 30.29"   Gusts: NA
Location:  41.3798°N, 92.3541°W
Report Text: KOOA 181215Z AUTO 05004KT 10SM BKN060 OVC080 M06/M08 A3029 RMK AO2 T10621080
Loading
Personal Weather Stations






























Interactive Weather Map New forecast layout! Learn more

10-Day Weather Forecast

Advertisements
Track Severe Weather on mobile